Terminal Aerodrome Forecast
Issued by NWS Sioux Falls, SD

Home | Current Version | Previous Version | Text Only | Print | Product List | Glossary Off
Versions: 1 2 3 4 5 6 7 8 9 10 11 12 13 14 15

000
FTUS43 KFSD 192300 RRA
TAFFSD
TAF
KFSD 192341Z 2000/2024 33004KT P6SM SCT080 BKN200
     FM200600 04004KT P6SM BKN100
     FM201400 08011KT P6SM SCT060 BKN120
     FM202000 12010KT P6SM BKN070=

USA.gov is the U.S. government's official web portal to all federal, state and local government web resources and services.